createdAt,value
2023-04-16T00:02:23.150Z,10.70
2023-04-16T00:04:55.343Z,10.70
2023-04-16T00:07:27.315Z,10.70
2023-04-16T00:09:59.668Z,10.70
2023-04-16T00:12:31.635Z,10.60
2023-04-16T00:15:03.960Z,10.60
2023-04-16T00:17:36.058Z,10.60
2023-04-16T00:20:09.322Z,10.60
2023-04-16T00:22:41.272Z,10.60
2023-04-16T00:25:14.240Z,10.60
2023-04-16T00:27:46.227Z,10.70
2023-04-16T00:30:18.265Z,10.60
2023-04-16T00:32:50.290Z,10.50
2023-04-16T00:35:22.204Z,10.50
2023-04-16T00:37:54.234Z,10.50
2023-04-16T00:40:31.422Z,10.50
2023-04-16T00:43:03.405Z,10.50
2023-04-16T00:45:36.446Z,10.50
2023-04-16T00:48:10.651Z,10.40
2023-04-16T00:50:42.760Z,10.40
2023-04-16T00:53:16.189Z,10.40
2023-04-16T00:55:48.115Z,10.50
2023-04-16T00:58:20.417Z,10.50
2023-04-16T01:00:52.360Z,10.50
2023-04-16T01:03:32.452Z,10.50
2023-04-16T01:06:05.280Z,10.40
2023-04-16T01:08:37.783Z,10.40
2023-04-16T01:11:11.327Z,10.50
2023-04-16T01:13:43.349Z,10.50
2023-04-16T01:16:15.349Z,10.50
2023-04-16T01:18:47.316Z,10.50
2023-04-16T01:21:19.329Z,10.50
2023-04-16T01:23:51.311Z,10.50
2023-04-16T01:26:23.267Z,10.50
2023-04-16T01:28:55.394Z,10.50
2023-04-16T01:31:27.543Z,10.50
2023-04-16T01:33:59.535Z,10.50
2023-04-16T01:36:31.491Z,10.50
2023-04-16T01:39:04.367Z,10.60
2023-04-16T01:41:36.472Z,10.60
2023-04-16T01:44:08.430Z,10.50
2023-04-16T01:46:40.679Z,10.60
2023-04-16T01:49:12.687Z,10.60
2023-04-16T01:51:44.686Z,10.50
2023-04-16T01:54:16.681Z,10.60
2023-04-16T01:56:48.663Z,10.60
2023-04-16T01:59:20.724Z,10.60
2023-04-16T02:01:53.030Z,10.60
2023-04-16T02:04:25.093Z,10.50
2023-04-16T02:06:57.402Z,10.50
2023-04-16T02:09:29.372Z,10.50
2023-04-16T02:12:03.306Z,10.50
2023-04-16T02:14:35.352Z,10.60
2023-04-16T02:17:07.338Z,10.60
2023-04-16T02:19:39.320Z,10.60
2023-04-16T02:22:11.245Z,10.50
2023-04-16T02:24:43.143Z,10.50
2023-04-16T02:27:15.042Z,10.50
2023-04-16T02:29:46.984Z,10.50
2023-04-16T02:32:18.922Z,10.40
2023-04-16T02:34:51.149Z,10.50
2023-04-16T02:37:23.602Z,10.40
2023-04-16T02:39:56.049Z,10.40
2023-04-16T02:42:28.544Z,10.40
2023-04-16T02:45:00.510Z,10.40
2023-04-16T02:47:32.449Z,10.40
2023-04-16T02:50:04.897Z,10.40
2023-04-16T02:52:36.832Z,10.40
2023-04-16T02:55:10.456Z,10.40
2023-04-16T02:57:42.676Z,10.40
2023-04-16T03:00:14.993Z,10.50
2023-04-16T03:02:46.965Z,10.50
2023-04-16T03:05:19.246Z,10.50
2023-04-16T03:07:56.512Z,10.60
2023-04-16T03:10:28.554Z,10.60
2023-04-16T03:13:03.550Z,10.50
2023-04-16T03:15:35.845Z,10.50
2023-04-16T03:18:07.767Z,10.50
2023-04-16T03:20:39.693Z,10.50
2023-04-16T03:23:11.681Z,10.50
2023-04-16T03:25:46.713Z,10.50
2023-04-16T03:28:18.784Z,10.50
2023-04-16T03:30:52.918Z,10.60
2023-04-16T03:33:24.966Z,10.60
2023-04-16T03:35:58.758Z,10.60
2023-04-16T03:38:30.996Z,10.60
2023-04-16T03:41:02.950Z,10.60
2023-04-16T03:43:34.902Z,10.60
2023-04-16T03:46:06.927Z,10.60
2023-04-16T03:48:38.873Z,10.60
2023-04-16T03:51:11.094Z,10.60
2023-04-16T03:53:43.036Z,10.60
2023-04-16T03:56:14.961Z,10.60
2023-04-16T03:58:46.950Z,10.70
2023-04-16T04:01:18.923Z,10.60
2023-04-16T04:03:51.213Z,10.60
2023-04-16T04:06:23.392Z,10.60
2023-04-16T04:08:55.450Z,10.60
2023-04-16T04:11:27.351Z,10.60
2023-04-16T04:13:59.500Z,10.60
2023-04-16T04:16:32.846Z,10.50
2023-04-16T04:19:04.886Z,10.50
2023-04-16T04:21:36.767Z,10.40
2023-04-16T04:24:08.705Z,10.40
2023-04-16T04:26:40.937Z,10.30
2023-04-16T04:29:14.268Z,10.30
2023-04-16T04:31:46.242Z,10.30
2023-04-16T04:34:18.822Z,10.30
2023-04-16T04:36:51.118Z,10.30
2023-04-16T04:39:23.301Z,10.30
2023-04-16T04:41:55.367Z,10.30
2023-04-16T04:44:27.434Z,10.30
2023-04-16T04:46:59.375Z,10.30
2023-04-16T04:49:32.156Z,10.40
2023-04-16T04:52:04.206Z,10.40
2023-04-16T04:54:36.393Z,10.50
2023-04-16T04:57:08.948Z,10.50
2023-04-16T04:59:40.910Z,10.50
2023-04-16T05:02:13.297Z,10.40
2023-04-16T05:04:45.511Z,10.40
2023-04-16T05:07:17.427Z,10.50
2023-04-16T05:09:49.355Z,10.50
2023-04-16T05:12:21.459Z,10.50
2023-04-16T05:14:53.448Z,10.50
2023-04-16T05:17:25.363Z,10.50
2023-04-16T05:19:57.361Z,10.50
2023-04-16T05:22:29.296Z,10.50
2023-04-16T05:25:01.404Z,10.40
2023-04-16T05:27:33.428Z,10.40
2023-04-16T05:30:06.306Z,10.40
2023-04-16T05:32:41.395Z,10.50
2023-04-16T05:35:14.790Z,10.50
2023-04-16T05:37:48.724Z,10.50
2023-04-16T05:40:20.950Z,10.50
2023-04-16T05:42:52.963Z,10.50
2023-04-16T05:45:26.138Z,10.50
2023-04-16T05:47:59.882Z,10.50
2023-04-16T05:50:31.813Z,10.50
2023-04-16T05:53:07.374Z,10.50
2023-04-16T05:55:39.327Z,10.50
2023-04-16T05:58:11.272Z,10.60
2023-04-16T06:00:43.295Z,10.60
2023-04-16T06:03:15.553Z,10.50
2023-04-16T06:05:47.590Z,10.50
2023-04-16T06:08:19.980Z,10.50
2023-04-16T06:10:51.967Z,10.60
2023-04-16T06:13:23.872Z,10.60
2023-04-16T06:15:55.960Z,10.50
2023-04-16T06:18:28.031Z,10.50
2023-04-16T06:21:00.345Z,10.50
2023-04-16T06:23:32.306Z,10.50
2023-04-16T06:26:05.682Z,10.50
2023-04-16T06:28:37.667Z,10.50
2023-04-16T06:31:09.687Z,10.60
2023-04-16T06:33:41.712Z,10.60
2023-04-16T06:36:13.696Z,10.60
2023-04-16T06:38:45.740Z,10.60
2023-04-16T06:41:17.817Z,10.60
2023-04-16T06:43:49.749Z,10.60
2023-04-16T06:46:21.745Z,10.60
2023-04-16T06:48:53.750Z,10.60
2023-04-16T06:51:26.792Z,10.60
2023-04-16T06:53:58.732Z,10.60
2023-04-16T06:56:30.953Z,10.60
2023-04-16T06:59:03.700Z,10.70
2023-04-16T07:01:36.403Z,10.70
2023-04-16T07:04:08.540Z,10.70
2023-04-16T07:06:40.776Z,10.60
2023-04-16T07:09:12.751Z,10.70
2023-04-16T07:11:44.876Z,10.70
2023-04-16T07:14:17.239Z,10.70
2023-04-16T07:16:49.224Z,10.70
2023-04-16T07:19:21.299Z,10.70
2023-04-16T07:21:53.298Z,10.80
2023-04-16T07:24:25.363Z,10.80
2023-04-16T07:26:57.359Z,10.80
2023-04-16T07:29:29.369Z,10.80
2023-04-16T07:32:01.745Z,10.70
2023-04-16T07:34:33.722Z,10.80
2023-04-16T07:37:05.876Z,10.80
2023-04-16T07:39:39.058Z,10.80
2023-04-16T07:42:11.398Z,10.80
2023-04-16T07:44:43.942Z,10.80
2023-04-16T07:47:16.241Z,10.80
2023-04-16T07:49:48.178Z,10.80
2023-04-16T07:52:20.637Z,10.90
2023-04-16T07:54:52.678Z,10.90
2023-04-16T07:57:24.639Z,10.90
2023-04-16T07:59:56.580Z,10.90
2023-04-16T08:02:28.880Z,10.80
2023-04-16T08:05:01.002Z,10.80
2023-04-16T08:07:34.565Z,10.80
2023-04-16T08:10:07.903Z,10.80
2023-04-16T08:12:40.773Z,10.80
2023-04-16T08:15:12.733Z,10.80
2023-04-16T08:17:45.095Z,10.90
2023-04-16T08:20:19.087Z,10.90
2023-04-16T08:22:51.338Z,10.90
2023-04-16T08:25:24.725Z,10.90
2023-04-16T08:27:56.694Z,10.90
2023-04-16T08:30:28.867Z,10.90
2023-04-16T08:33:01.323Z,10.90
2023-04-16T08:35:33.898Z,10.90
2023-04-16T08:38:07.493Z,10.90
2023-04-16T08:40:41.952Z,10.90
2023-04-16T08:43:17.534Z,10.90
2023-04-16T08:45:49.670Z,10.90
2023-04-16T08:48:23.426Z,11.00
2023-04-16T08:50:56.208Z,11.00
2023-04-16T08:53:38.759Z,11.00
2023-04-16T08:56:13.002Z,11.00
2023-04-16T08:58:48.826Z,11.10
2023-04-16T09:01:22.229Z,11.10
2023-04-16T09:03:54.953Z,11.10
2023-04-16T09:06:28.557Z,11.20
2023-04-16T09:09:04.681Z,11.20
2023-04-16T09:11:38.968Z,11.20
2023-04-16T09:14:12.192Z,11.30
2023-04-16T09:16:49.384Z,11.40
2023-04-16T09:19:22.540Z,11.40
2023-04-16T09:21:54.556Z,11.40
2023-04-16T09:24:26.851Z,11.40
2023-04-16T09:27:00.559Z,11.40
2023-04-16T09:29:38.012Z,11.40
2023-04-16T09:32:12.125Z,11.40
2023-04-16T09:35:01.155Z,11.40
2023-04-16T09:37:33.220Z,11.40
2023-04-16T09:40:06.228Z,11.40
2023-04-16T09:42:38.355Z,11.40
2023-04-16T09:45:11.009Z,11.40
2023-04-16T09:47:46.349Z,11.40
2023-04-16T09:50:20.452Z,11.50
2023-04-16T09:52:52.500Z,11.50
2023-04-16T09:55:27.862Z,11.50
2023-04-16T09:58:01.667Z,11.50
2023-04-16T10:00:33.730Z,11.50
2023-04-16T10:03:07.243Z,11.50
2023-04-16T10:05:39.639Z,11.50
2023-04-16T10:08:13.696Z,11.50
2023-04-16T10:10:45.871Z,11.50
2023-04-16T10:13:19.339Z,11.50
2023-04-16T10:15:51.527Z,11.40
2023-04-16T10:18:24.045Z,11.50
2023-04-16T10:20:57.559Z,11.50
2023-04-16T10:23:30.161Z,11.50
2023-04-16T10:26:02.862Z,11.50
2023-04-16T10:28:35.770Z,11.50
2023-04-16T10:31:09.796Z,11.60
2023-04-16T10:33:44.279Z,11.60
2023-04-16T10:36:23.793Z,11.60
2023-04-16T10:39:00.875Z,11.60
2023-04-16T10:41:33.739Z,11.70
2023-04-16T10:44:10.016Z,11.70
2023-04-16T10:46:44.913Z,11.70
2023-04-16T10:49:23.533Z,11.70
2023-04-16T10:51:58.361Z,11.70
2023-04-16T10:54:32.117Z,11.70
2023-04-16T10:57:12.270Z,11.70
2023-04-16T10:59:45.414Z,11.70
2023-04-16T11:02:19.565Z,11.70
2023-04-16T11:04:51.936Z,11.70
2023-04-16T11:07:35.149Z,11.70
2023-04-16T11:10:13.470Z,11.70
2023-04-16T11:12:48.906Z,11.70
2023-04-16T11:15:21.931Z,11.70
2023-04-16T11:17:54.027Z,11.70
2023-04-16T11:20:28.436Z,11.70
2023-04-16T11:23:00.421Z,11.70
2023-04-16T11:25:34.328Z,11.80
2023-04-16T11:28:06.432Z,11.80
2023-04-16T11:30:40.128Z,11.80
2023-04-16T11:33:12.662Z,11.90
2023-04-16T11:35:46.097Z,11.80
2023-04-16T11:38:19.229Z,11.90
2023-04-16T11:40:54.072Z,11.90
2023-04-16T11:43:27.155Z,11.90
2023-04-16T11:46:10.286Z,11.90
2023-04-16T11:48:55.575Z,11.90
2023-04-16T11:51:27.537Z,12.00
2023-04-16T11:53:59.514Z,12.00
2023-04-16T11:56:36.319Z,12.00
2023-04-16T11:59:17.052Z,12.00
2023-04-16T12:01:52.864Z,12.00
2023-04-16T12:04:29.420Z,12.00
2023-04-16T12:07:14.775Z,12.00
2023-04-16T12:09:46.690Z,12.00
2023-04-16T12:12:32.535Z,12.00
2023-04-16T12:15:05.296Z,12.00
2023-04-16T12:17:38.894Z,12.00
2023-04-16T12:20:15.842Z,12.10
2023-04-16T12:22:49.854Z,12.10
2023-04-16T12:25:25.050Z,12.20
2023-04-16T12:27:58.104Z,12.10
2023-04-16T12:30:31.011Z,12.20
2023-04-16T12:33:19.864Z,12.20
2023-04-16T12:35:52.544Z,12.20
2023-04-16T12:38:25.708Z,12.20
2023-04-16T12:40:58.423Z,12.30
2023-04-16T12:43:30.446Z,12.30
2023-04-16T12:46:04.314Z,12.30
2023-04-16T12:48:36.716Z,12.20
2023-04-16T12:51:08.680Z,12.20
2023-04-16T12:53:40.744Z,12.20
2023-04-16T12:56:12.687Z,12.20
2023-04-16T12:58:44.667Z,12.20
2023-04-16T13:01:16.609Z,12.20
2023-04-16T13:03:49.688Z,12.30
2023-04-16T13:06:21.959Z,12.30
2023-04-16T13:08:54.003Z,12.40
2023-04-16T13:11:26.129Z,12.40
2023-04-16T13:13:58.285Z,12.40
2023-04-16T13:16:30.265Z,12.40
2023-04-16T13:19:02.158Z,12.40
2023-04-16T13:21:34.564Z,12.40
2023-04-16T13:24:07.010Z,12.40
2023-04-16T13:26:38.988Z,12.40
2023-04-16T13:29:11.709Z,12.50
2023-04-16T13:31:43.937Z,12.50
2023-04-16T13:34:15.982Z,12.60
2023-04-16T13:36:48.020Z,12.60
2023-04-16T13:39:20.080Z,12.60
2023-04-16T13:41:52.008Z,12.60
2023-04-16T13:44:23.922Z,12.70
2023-04-16T13:46:56.226Z,12.80
2023-04-16T13:49:28.333Z,13.00
2023-04-16T13:52:01.030Z,13.10
2023-04-16T13:54:33.804Z,13.20
2023-04-16T13:57:06.064Z,13.30
2023-04-16T13:59:38.296Z,13.30
2023-04-16T14:02:11.236Z,13.30
2023-04-16T14:04:43.207Z,13.20
2023-04-16T14:07:15.782Z,13.30
2023-04-16T14:09:47.736Z,13.60
2023-04-16T14:12:19.927Z,13.80
2023-04-16T14:14:51.940Z,14.00
2023-04-16T14:17:23.894Z,14.00
2023-04-16T14:19:56.359Z,14.00
2023-04-16T14:22:28.336Z,13.90
2023-04-16T14:25:01.115Z,13.90
2023-04-16T14:27:34.308Z,13.80
2023-04-16T14:30:07.407Z,13.80
2023-04-16T14:32:39.396Z,13.80
2023-04-16T14:35:11.368Z,13.70
2023-04-16T14:37:43.790Z,13.70
2023-04-16T14:40:16.087Z,13.60
2023-04-16T14:42:48.049Z,13.60
2023-04-16T14:45:20.363Z,13.50
2023-04-16T14:47:52.393Z,13.40
2023-04-16T14:50:24.395Z,13.40
2023-04-16T14:52:56.543Z,13.30
2023-04-16T14:55:28.545Z,13.30
2023-04-16T14:58:01.005Z,13.20
2023-04-16T15:00:35.634Z,13.30
2023-04-16T15:03:07.922Z,13.20
2023-04-16T15:05:39.928Z,13.20
2023-04-16T15:08:12.235Z,13.20
2023-04-16T15:10:45.806Z,13.20
2023-04-16T15:13:18.002Z,13.20
2023-04-16T15:15:50.525Z,13.20
2023-04-16T15:18:22.691Z,13.20
2023-04-16T15:20:55.570Z,13.30
2023-04-16T15:23:27.746Z,13.40
2023-04-16T15:25:59.730Z,13.50
2023-04-16T15:28:31.849Z,13.50
2023-04-16T15:31:03.836Z,13.50
2023-04-16T15:33:35.932Z,13.50
2023-04-16T15:36:07.886Z,13.40
2023-04-16T15:38:39.921Z,13.40
2023-04-16T15:41:11.971Z,13.40
2023-04-16T15:43:43.925Z,13.50
2023-04-16T15:46:16.361Z,13.50
2023-04-16T15:48:48.420Z,13.50
2023-04-16T15:51:20.553Z,13.50
2023-04-16T15:53:53.508Z,13.40
2023-04-16T15:56:25.912Z,13.40
2023-04-16T15:58:57.919Z,13.40
2023-04-16T16:01:29.894Z,13.40
2023-04-16T16:04:01.993Z,13.40
2023-04-16T16:06:34.403Z,13.50
2023-04-16T16:09:06.454Z,13.40
2023-04-16T16:11:38.442Z,13.40
2023-04-16T16:14:10.905Z,13.40
2023-04-16T16:16:42.891Z,13.30
2023-04-16T16:19:15.195Z,13.30
2023-04-16T16:21:47.120Z,13.20
2023-04-16T16:24:19.563Z,13.20
2023-04-16T16:26:51.527Z,13.10
2023-04-16T16:29:25.457Z,13.10
2023-04-16T16:31:57.994Z,13.20
2023-04-16T16:34:37.192Z,13.20
2023-04-16T16:37:09.265Z,13.30
2023-04-16T16:39:41.441Z,13.30
2023-04-16T16:42:14.190Z,13.30
2023-04-16T16:44:49.676Z,13.30
2023-04-16T16:47:22.161Z,13.30
2023-04-16T16:49:54.868Z,13.20
2023-04-16T16:52:27.170Z,13.20
2023-04-16T16:54:59.230Z,13.20
2023-04-16T16:57:31.212Z,13.20
2023-04-16T17:00:08.163Z,13.10
2023-04-16T17:02:41.073Z,13.10
2023-04-16T17:05:13.606Z,13.00
2023-04-16T17:07:45.921Z,13.00
2023-04-16T17:10:21.522Z,13.00
2023-04-16T17:12:53.536Z,13.00
2023-04-16T17:15:25.733Z,13.00
2023-04-16T17:17:57.754Z,13.00
2023-04-16T17:20:29.957Z,13.00
2023-04-16T17:23:01.884Z,12.90
2023-04-16T17:25:34.227Z,12.90
2023-04-16T17:28:06.147Z,12.90
2023-04-16T17:30:38.199Z,12.90
2023-04-16T17:33:10.358Z,12.90
2023-04-16T17:35:42.310Z,12.90
2023-04-16T17:38:14.375Z,12.90
2023-04-16T17:40:46.370Z,12.80
2023-04-16T17:43:18.295Z,12.80
2023-04-16T17:45:50.609Z,12.80
2023-04-16T17:48:22.566Z,12.80
2023-04-16T17:50:54.617Z,12.80
2023-04-16T17:53:26.717Z,12.80
2023-04-16T17:55:58.638Z,12.80
2023-04-16T17:58:35.163Z,12.70
2023-04-16T18:01:07.336Z,12.70
2023-04-16T18:03:40.235Z,12.70
2023-04-16T18:06:12.408Z,12.70
2023-04-16T18:08:44.355Z,12.60
2023-04-16T18:11:16.287Z,12.60
2023-04-16T18:13:48.681Z,12.50
2023-04-16T18:16:20.759Z,12.40
2023-04-16T18:18:52.756Z,12.40
2023-04-16T18:21:24.843Z,12.40
2023-04-16T18:23:56.873Z,12.40
2023-04-16T18:26:29.997Z,12.50
2023-04-16T18:29:02.295Z,12.50
2023-04-16T18:31:35.013Z,12.60
2023-04-16T18:34:07.264Z,12.60
2023-04-16T18:36:39.204Z,12.60
2023-04-16T18:39:11.198Z,12.60
2023-04-16T18:41:44.592Z,12.60
2023-04-16T18:44:17.402Z,12.60
2023-04-16T18:46:49.520Z,12.60
2023-04-16T18:49:21.754Z,12.60
2023-04-16T18:51:55.915Z,12.60
2023-04-16T18:54:28.009Z,12.60
2023-04-16T18:57:00.871Z,12.60
2023-04-16T18:59:33.157Z,12.60
2023-04-16T19:02:05.330Z,12.60
2023-04-16T19:04:38.237Z,12.60
2023-04-16T19:07:10.325Z,12.60
2023-04-16T19:09:42.293Z,12.60
2023-04-16T19:12:14.219Z,12.60
2023-04-16T19:14:46.135Z,12.60
2023-04-16T19:17:18.163Z,12.60
2023-04-16T19:19:50.195Z,12.50
2023-04-16T19:22:22.144Z,12.50
2023-04-16T19:24:54.761Z,12.40
2023-04-16T19:27:29.485Z,12.40
2023-04-16T19:30:01.388Z,12.40
2023-04-16T19:32:33.827Z,12.40
2023-04-16T19:35:06.552Z,12.30
2023-04-16T19:37:38.526Z,12.30
2023-04-16T19:40:11.202Z,12.30
2023-04-16T19:42:45.260Z,12.30
2023-04-16T19:45:18.387Z,12.30
2023-04-16T19:47:51.272Z,12.30
2023-04-16T19:50:23.945Z,12.30
2023-04-16T19:52:56.095Z,12.20
2023-04-16T19:55:28.064Z,12.20
2023-04-16T19:58:05.811Z,12.20
2023-04-16T20:00:42.568Z,12.30
2023-04-16T20:03:14.649Z,12.30
2023-04-16T20:05:49.904Z,12.30
2023-04-16T20:08:21.817Z,12.20
2023-04-16T20:10:54.540Z,12.30
2023-04-16T20:13:26.476Z,12.30
2023-04-16T20:15:58.426Z,12.30
2023-04-16T20:18:30.448Z,12.30
2023-04-16T20:21:06.042Z,12.30
2023-04-16T20:23:37.987Z,12.30
2023-04-16T20:26:09.956Z,12.30
2023-04-16T20:28:41.841Z,12.30
2023-04-16T20:31:13.759Z,12.20
2023-04-16T20:33:45.820Z,12.30
2023-04-16T20:36:17.872Z,12.30
2023-04-16T20:38:51.470Z,12.20
2023-04-16T20:41:25.149Z,12.20
2023-04-16T20:43:57.274Z,12.20
2023-04-16T20:46:30.094Z,12.20
2023-04-16T20:49:02.415Z,12.20
2023-04-16T20:51:34.293Z,12.20
2023-04-16T20:54:08.641Z,12.30
2023-04-16T20:56:40.846Z,12.20
2023-04-16T20:59:13.466Z,12.20
2023-04-16T21:01:45.793Z,12.20
2023-04-16T21:04:18.378Z,12.20
2023-04-16T21:06:53.517Z,12.20
2023-04-16T21:09:25.494Z,12.10
2023-04-16T21:11:57.471Z,12.10
2023-04-16T21:14:29.417Z,12.10
2023-04-16T21:17:01.344Z,12.00
2023-04-16T21:19:33.308Z,12.10
2023-04-16T21:22:05.354Z,12.10
2023-04-16T21:24:37.426Z,12.10
2023-04-16T21:27:09.404Z,12.00
2023-04-16T21:29:41.369Z,12.00
2023-04-16T21:32:13.437Z,12.00
2023-04-16T21:34:45.803Z,12.00
2023-04-16T21:37:17.728Z,12.10
2023-04-16T21:39:49.691Z,12.10
2023-04-16T21:42:21.635Z,12.10
2023-04-16T21:44:53.652Z,12.10
2023-04-16T21:47:25.948Z,12.10
2023-04-16T21:49:58.128Z,12.00
2023-04-16T21:52:30.114Z,12.00
2023-04-16T21:55:02.189Z,12.00
2023-04-16T21:57:34.218Z,11.90
2023-04-16T22:00:14.186Z,11.90
2023-04-16T22:02:46.794Z,11.90
2023-04-16T22:05:20.000Z,11.80
2023-04-16T22:07:52.793Z,11.80
2023-04-16T22:10:24.756Z,11.80
2023-04-16T22:12:56.738Z,11.80
2023-04-16T22:15:29.692Z,11.80
2023-04-16T22:18:01.952Z,11.80
2023-04-16T22:20:39.226Z,11.80
2023-04-16T22:23:11.803Z,11.80
2023-04-16T22:25:43.904Z,11.70
2023-04-16T22:28:15.947Z,11.70
2023-04-16T22:30:47.886Z,11.70
2023-04-16T22:33:20.329Z,11.70
2023-04-16T22:35:52.313Z,11.70
2023-04-16T22:38:24.194Z,11.70
2023-04-16T22:40:56.316Z,11.70
2023-04-16T22:43:28.245Z,11.70
2023-04-16T22:46:04.924Z,11.70
2023-04-16T22:48:38.742Z,11.70
2023-04-16T22:51:10.687Z,11.70
2023-04-16T22:53:42.644Z,11.70
2023-04-16T22:56:14.615Z,11.70
2023-04-16T22:58:46.606Z,11.70
2023-04-16T23:01:18.641Z,11.60
2023-04-16T23:03:50.660Z,11.60
2023-04-16T23:06:22.718Z,11.70
2023-04-16T23:08:54.680Z,11.70
2023-04-16T23:11:26.602Z,11.60
2023-04-16T23:13:58.797Z,11.60
2023-04-16T23:16:30.880Z,11.60
2023-04-16T23:19:02.805Z,11.60
2023-04-16T23:21:34.862Z,11.60
2023-04-16T23:24:07.250Z,11.60
2023-04-16T23:26:39.208Z,11.50
2023-04-16T23:29:11.404Z,11.50
2023-04-16T23:31:43.553Z,11.50
2023-04-16T23:34:15.617Z,11.50
2023-04-16T23:36:47.648Z,11.50
2023-04-16T23:39:19.662Z,11.50
2023-04-16T23:41:51.622Z,11.50
2023-04-16T23:44:23.566Z,11.50
2023-04-16T23:46:55.722Z,11.50
2023-04-16T23:49:27.810Z,11.40
2023-04-16T23:51:59.754Z,11.40
2023-04-16T23:54:31.791Z,11.40
2023-04-16T23:57:03.787Z,11.40
2023-04-16T23:59:35.740Z,11.40
